createdAt,value
2022-08-28T00:00:56.150Z,20.21
2022-08-28T00:03:28.761Z,20.19
2022-08-28T00:06:02.101Z,20.17
2022-08-28T00:08:32.145Z,20.15
2022-08-28T00:11:01.296Z,20.14
2022-08-28T00:13:31.116Z,20.13
2022-08-28T00:16:04.592Z,20.11
2022-08-28T00:18:34.972Z,20.08
2022-08-28T00:21:04.340Z,20.05
2022-08-28T00:23:42.766Z,20.02
2022-08-28T00:26:33.439Z,20.01
2022-08-28T00:29:01.783Z,20.00
2022-08-28T00:31:30.232Z,19.99
2022-08-28T00:34:02.096Z,19.99
2022-08-28T00:36:31.913Z,19.98
2022-08-28T00:39:02.806Z,19.99
2022-08-28T00:41:32.581Z,19.98
2022-08-28T00:44:10.735Z,19.99
2022-08-28T00:46:42.032Z,19.98
2022-08-28T00:49:12.501Z,19.98
2022-08-28T00:51:59.191Z,20.02
2022-08-28T00:54:37.455Z,19.99
2022-08-28T00:57:08.846Z,19.97
2022-08-28T00:59:38.916Z,19.97
2022-08-28T01:02:08.538Z,19.95
2022-08-28T01:04:42.737Z,19.96
2022-08-28T01:07:17.224Z,19.97
2022-08-28T01:09:50.047Z,20.01
2022-08-28T01:12:23.252Z,20.06
2022-08-28T01:14:58.126Z,20.03
2022-08-28T01:17:43.082Z,19.96
2022-08-28T01:20:16.899Z,19.97
2022-08-28T01:22:53.740Z,19.93
2022-08-28T01:25:33.608Z,19.92
2022-08-28T01:28:03.660Z,19.92
2022-08-28T01:30:34.592Z,19.92
2022-08-28T01:33:03.659Z,19.90
2022-08-28T01:35:35.219Z,19.90
2022-08-28T01:38:04.693Z,19.90
2022-08-28T01:40:38.205Z,19.95
2022-08-28T01:43:12.355Z,19.95
2022-08-28T01:45:47.301Z,19.95
2022-08-28T01:48:19.315Z,19.95
2022-08-28T01:50:47.575Z,19.95
2022-08-28T01:53:19.042Z,19.94
2022-08-28T01:55:47.761Z,19.94
2022-08-28T01:58:18.856Z,19.91
2022-08-28T02:00:46.886Z,19.91
2022-08-28T02:03:16.427Z,19.91
2022-08-28T02:05:44.363Z,19.91
2022-08-28T02:08:15.392Z,19.92
2022-08-28T02:10:44.694Z,19.91
2022-08-28T02:13:12.727Z,19.91
2022-08-28T02:15:43.246Z,19.90
2022-08-28T02:18:12.815Z,19.89
2022-08-28T02:20:46.152Z,19.88
2022-08-28T02:23:15.485Z,19.88
2022-08-28T02:25:46.086Z,19.88
2022-08-28T02:28:18.933Z,19.88
2022-08-28T02:30:53.620Z,19.85
2022-08-28T02:33:22.522Z,19.84
2022-08-28T02:35:52.791Z,19.84
2022-08-28T02:38:24.567Z,19.83
2022-08-28T02:40:57.964Z,19.83
2022-08-28T02:43:25.693Z,19.83
2022-08-28T02:45:56.069Z,19.80
2022-08-28T02:48:27.095Z,19.79
2022-08-28T02:51:03.141Z,19.77
2022-08-28T02:53:33.131Z,19.74
2022-08-28T02:56:15.972Z,19.71
2022-08-28T02:58:45.302Z,19.69
2022-08-28T03:01:13.703Z,19.68
2022-08-28T03:03:44.324Z,19.68
2022-08-28T03:06:13.022Z,19.67
2022-08-28T03:08:41.413Z,19.67
2022-08-28T03:11:09.886Z,19.66
2022-08-28T03:13:38.233Z,19.65
2022-08-28T03:16:08.329Z,19.65
2022-08-28T03:18:38.051Z,19.64
2022-08-28T03:21:08.568Z,19.65
2022-08-28T03:23:38.564Z,19.65
2022-08-28T03:26:08.622Z,19.63
2022-08-28T03:28:39.339Z,19.60
2022-08-28T03:31:08.302Z,19.60
2022-08-28T03:33:37.390Z,19.60
2022-08-28T03:36:10.353Z,19.62
2022-08-28T03:38:38.887Z,19.63
2022-08-28T03:41:12.980Z,19.64
2022-08-28T03:43:44.422Z,19.65
2022-08-28T03:46:19.639Z,19.65
2022-08-28T03:48:50.753Z,19.65
2022-08-28T03:51:29.686Z,19.65
2022-08-28T03:53:59.277Z,19.65
2022-08-28T03:56:30.578Z,19.65
2022-08-28T03:59:01.299Z,19.65
2022-08-28T04:01:35.308Z,19.65
2022-08-28T04:04:08.222Z,19.67
2022-08-28T04:06:36.511Z,19.65
2022-08-28T04:09:09.414Z,19.66
2022-08-28T04:11:45.095Z,19.66
2022-08-28T04:14:13.276Z,19.66
2022-08-28T04:16:43.401Z,19.66
2022-08-28T04:19:14.199Z,19.68
2022-08-28T04:21:48.369Z,19.69
2022-08-28T04:24:16.881Z,19.68
2022-08-28T04:26:45.949Z,19.68
2022-08-28T04:29:16.472Z,19.68
2022-08-28T04:31:44.276Z,19.68
2022-08-28T04:34:12.818Z,19.70
2022-08-28T04:36:41.081Z,19.70
2022-08-28T04:39:11.569Z,19.71
2022-08-28T04:41:39.394Z,19.71
2022-08-28T04:44:08.948Z,19.71
2022-08-28T04:46:38.297Z,19.71
2022-08-28T04:49:05.926Z,19.71
2022-08-28T04:51:42.285Z,19.72
2022-08-28T04:54:10.399Z,19.73
2022-08-28T04:56:46.308Z,19.74
2022-08-28T04:59:14.659Z,19.75
2022-08-28T05:01:46.185Z,19.76
2022-08-28T05:04:15.247Z,19.79
2022-08-28T05:06:45.562Z,19.80
2022-08-28T05:09:15.585Z,19.82
2022-08-28T05:11:46.613Z,19.84
2022-08-28T05:14:16.479Z,19.85
2022-08-28T05:16:46.565Z,19.88
2022-08-28T05:19:16.199Z,19.88
2022-08-28T05:21:48.181Z,19.86
2022-08-28T05:24:17.136Z,19.89
2022-08-28T05:26:52.584Z,19.98
2022-08-28T05:29:21.193Z,19.96
2022-08-28T05:31:56.204Z,19.95
2022-08-28T05:34:26.429Z,19.99
2022-08-28T05:36:55.122Z,19.98
2022-08-28T05:39:22.992Z,20.00
2022-08-28T05:41:51.447Z,20.02
2022-08-28T05:44:23.324Z,20.04
2022-08-28T05:46:53.262Z,20.08
2022-08-28T05:49:22.843Z,20.11
2022-08-28T05:51:52.431Z,20.13
2022-08-28T05:54:23.151Z,20.15
2022-08-28T05:56:52.949Z,20.18
2022-08-28T05:59:21.679Z,20.21
2022-08-28T06:01:51.371Z,20.24
2022-08-28T06:04:22.304Z,20.28
2022-08-28T06:06:50.597Z,20.32
2022-08-28T06:09:26.605Z,20.35
2022-08-28T06:11:59.380Z,20.38
2022-08-28T06:14:28.852Z,20.42
2022-08-28T06:17:01.770Z,20.47
2022-08-28T06:19:32.106Z,20.49
2022-08-28T06:22:07.415Z,20.55
2022-08-28T06:24:35.878Z,20.61
2022-08-28T06:27:04.670Z,20.66
2022-08-28T06:29:32.290Z,20.70
2022-08-28T06:32:03.865Z,20.73
2022-08-28T06:34:31.838Z,20.79
2022-08-28T06:37:00.084Z,20.84
2022-08-28T06:39:27.733Z,20.88
2022-08-28T06:41:55.516Z,20.91
2022-08-28T06:44:23.306Z,20.95
2022-08-28T06:46:53.412Z,21.00
2022-08-28T06:49:22.346Z,21.03
2022-08-28T06:51:50.500Z,21.07
2022-08-28T06:54:22.795Z,21.10
2022-08-28T06:56:52.232Z,21.15
2022-08-28T06:59:20.754Z,21.20
2022-08-28T07:01:48.722Z,21.23
2022-08-28T07:04:17.749Z,21.26
2022-08-28T07:06:53.040Z,21.30
2022-08-28T07:09:25.509Z,21.33
2022-08-28T07:12:00.889Z,21.36
2022-08-28T07:14:31.305Z,21.40
2022-08-28T07:16:59.977Z,21.45
2022-08-28T07:19:27.709Z,21.47
2022-08-28T07:21:55.735Z,21.48
2022-08-28T07:24:24.051Z,21.51
2022-08-28T07:26:52.025Z,21.58
2022-08-28T07:29:20.403Z,21.63
2022-08-28T07:31:50.894Z,21.67
2022-08-28T07:34:21.441Z,21.70
2022-08-28T07:36:51.778Z,21.71
2022-08-28T07:39:20.498Z,21.77
2022-08-28T07:41:48.459Z,21.81
2022-08-28T07:44:43.081Z,21.85
2022-08-28T07:47:13.460Z,21.91
2022-08-28T07:49:41.913Z,21.95
2022-08-28T07:52:11.028Z,21.99
2022-08-28T07:54:41.199Z,22.04
2022-08-28T07:57:10.069Z,22.05
2022-08-28T07:59:38.666Z,22.07
2022-08-28T08:02:06.973Z,22.09
2022-08-28T08:04:35.388Z,22.14
2022-08-28T08:07:06.443Z,22.18
2022-08-28T08:09:39.221Z,22.24
2022-08-28T08:12:12.554Z,22.32
2022-08-28T08:14:43.251Z,22.39
2022-08-28T08:17:17.099Z,22.46
2022-08-28T08:19:45.006Z,22.50
2022-08-28T08:22:13.913Z,22.55
2022-08-28T08:24:42.900Z,22.60
2022-08-28T08:27:10.784Z,22.64
2022-08-28T08:29:40.179Z,22.69
2022-08-28T08:32:11.258Z,22.74
2022-08-28T08:34:41.631Z,22.79
2022-08-28T08:37:10.539Z,22.82
2022-08-28T08:39:39.220Z,22.83
2022-08-28T08:42:18.254Z,22.85
2022-08-28T08:44:47.995Z,22.88
2022-08-28T08:47:21.407Z,22.94
2022-08-28T08:49:52.480Z,22.97
2022-08-28T08:52:29.695Z,22.98
2022-08-28T08:55:07.446Z,22.99
2022-08-28T08:57:38.348Z,23.06
2022-08-28T09:00:11.210Z,23.14
2022-08-28T09:02:48.688Z,23.17
2022-08-28T09:05:21.987Z,23.15
2022-08-28T09:07:56.988Z,23.13
2022-08-28T09:10:34.974Z,23.13
2022-08-28T09:13:15.333Z,23.21
2022-08-28T09:15:49.971Z,23.31
2022-08-28T09:18:21.886Z,23.38
2022-08-28T09:20:51.218Z,23.39
2022-08-28T09:23:20.826Z,23.43
2022-08-28T09:26:00.068Z,23.49
2022-08-28T09:28:33.651Z,23.57
2022-08-28T09:31:04.238Z,23.61
2022-08-28T09:33:41.786Z,23.68
2022-08-28T09:36:33.943Z,23.77
2022-08-28T09:39:16.314Z,23.86
2022-08-28T09:42:10.386Z,23.94
2022-08-28T09:44:59.762Z,24.02
2022-08-28T09:47:46.223Z,24.07
2022-08-28T09:50:25.550Z,24.07
2022-08-28T09:52:55.624Z,24.08
2022-08-28T09:55:33.259Z,24.13
2022-08-28T09:58:01.530Z,24.19
2022-08-28T10:00:33.710Z,24.19
2022-08-28T10:03:13.901Z,24.14
2022-08-28T10:05:51.310Z,24.07
2022-08-28T10:08:29.609Z,24.00
2022-08-28T10:11:07.138Z,23.94
2022-08-28T10:13:42.126Z,23.89
2022-08-28T10:16:25.514Z,23.85
2022-08-28T10:19:01.532Z,23.87
2022-08-28T10:21:36.420Z,23.95
2022-08-28T10:24:28.315Z,23.98
2022-08-28T10:27:05.184Z,23.98
2022-08-28T10:29:48.892Z,23.99
2022-08-28T10:32:31.916Z,24.04
2022-08-28T10:35:07.232Z,24.10
2022-08-28T10:37:50.720Z,24.15
2022-08-28T10:40:22.816Z,24.20
2022-08-28T10:42:55.823Z,24.24
2022-08-28T10:45:25.822Z,24.26
2022-08-28T10:47:57.849Z,24.24
2022-08-28T10:50:28.703Z,24.17
2022-08-28T10:53:02.587Z,24.10
2022-08-28T10:55:36.509Z,24.01
2022-08-28T10:58:24.321Z,23.91
2022-08-28T11:00:55.476Z,23.78
2022-08-28T11:03:35.023Z,23.66
2022-08-28T11:06:10.685Z,23.57
2022-08-28T11:08:39.272Z,23.49
2022-08-28T11:11:14.139Z,23.42
2022-08-28T11:13:51.016Z,23.41
2022-08-28T11:16:22.620Z,23.40
2022-08-28T11:19:09.667Z,23.33
2022-08-28T11:21:42.635Z,23.29
2022-08-28T11:24:26.040Z,23.33
2022-08-28T11:27:05.828Z,23.41
2022-08-28T11:30:11.751Z,23.54
2022-08-28T11:32:58.746Z,23.68
2022-08-28T11:35:40.833Z,23.81
2022-08-28T11:38:09.614Z,23.94
2022-08-28T11:41:09.299Z,24.07
2022-08-28T11:43:39.960Z,24.21
2022-08-28T11:46:32.077Z,24.29
2022-08-28T11:49:03.513Z,24.36
2022-08-28T11:51:48.523Z,24.36
2022-08-28T11:54:31.980Z,24.34
2022-08-28T11:57:07.841Z,24.28
2022-08-28T11:59:58.441Z,24.22
2022-08-28T12:02:53.509Z,24.16
2022-08-28T12:05:49.100Z,24.10
2022-08-28T12:09:02.172Z,24.02
2022-08-28T12:11:53.942Z,23.88
2022-08-28T12:15:02.245Z,23.77
2022-08-28T12:17:50.400Z,23.63
2022-08-28T12:20:24.730Z,23.59
2022-08-28T12:22:55.674Z,23.59
2022-08-28T12:25:27.409Z,23.56
2022-08-28T12:27:56.319Z,23.54
2022-08-28T12:30:39.875Z,23.53
2022-08-28T12:33:17.950Z,23.54
2022-08-28T12:35:45.622Z,23.51
2022-08-28T12:38:20.013Z,23.49
2022-08-28T12:40:50.284Z,23.47
2022-08-28T12:43:29.369Z,23.41
2022-08-28T12:45:59.361Z,23.41
2022-08-28T12:48:30.865Z,23.41
2022-08-28T12:51:03.294Z,23.38
2022-08-28T12:53:39.788Z,23.36
2022-08-28T12:56:10.313Z,23.35
2022-08-28T12:58:39.925Z,23.31
2022-08-28T13:01:10.765Z,23.26
2022-08-28T13:03:47.486Z,23.22
2022-08-28T13:06:24.618Z,23.15
2022-08-28T13:08:58.734Z,23.07
2022-08-28T13:11:28.882Z,22.98
2022-08-28T13:13:56.645Z,22.88
2022-08-28T13:16:40.721Z,22.77
2022-08-28T13:19:26.978Z,22.66
2022-08-28T13:21:59.935Z,22.52
2022-08-28T13:24:38.178Z,22.41
2022-08-28T13:27:15.953Z,22.33
2022-08-28T13:29:57.291Z,22.24
2022-08-28T13:32:29.077Z,22.16
2022-08-28T13:35:30.150Z,22.05
2022-08-28T13:37:59.843Z,21.99
2022-08-28T13:40:56.228Z,21.91
2022-08-28T13:43:20.062Z,21.82
2022-08-28T13:45:48.962Z,21.73
2022-08-28T13:48:19.992Z,21.67
2022-08-28T13:50:50.215Z,21.64
2022-08-28T13:53:21.929Z,21.59
2022-08-28T13:55:50.681Z,21.49
2022-08-28T13:58:18.435Z,21.41
2022-08-28T14:00:48.327Z,21.35
2022-08-28T14:03:35.101Z,21.32
2022-08-28T14:06:03.778Z,21.27
2022-08-28T14:08:31.633Z,21.23
2022-08-28T14:10:59.668Z,21.21
2022-08-28T14:13:27.921Z,21.16
2022-08-28T14:15:56.870Z,21.11
2022-08-28T14:18:25.238Z,21.09
2022-08-28T14:20:53.261Z,21.06
2022-08-28T14:23:22.447Z,21.01
2022-08-28T14:25:50.174Z,20.99
2022-08-28T14:28:19.056Z,20.94
2022-08-28T14:30:48.954Z,20.92
2022-08-28T14:33:18.924Z,20.90
2022-08-28T14:35:49.515Z,20.85
2022-08-28T14:38:20.653Z,20.83
2022-08-28T14:40:48.881Z,20.83
2022-08-28T14:43:16.553Z,20.82
2022-08-28T14:45:46.318Z,20.79
2022-08-28T14:48:15.069Z,20.73
2022-08-28T14:50:45.302Z,20.69
2022-08-28T14:53:13.851Z,20.67
2022-08-28T14:55:44.166Z,20.63
2022-08-28T14:58:12.811Z,20.59
2022-08-28T15:00:42.530Z,20.56
2022-08-28T15:03:11.444Z,20.57
2022-08-28T15:05:39.483Z,20.57
2022-08-28T15:08:09.345Z,20.53
2022-08-28T15:10:39.721Z,20.43
2022-08-28T15:13:09.396Z,20.39
2022-08-28T15:15:38.751Z,20.38
2022-08-28T15:18:07.270Z,20.34
2022-08-28T15:20:38.604Z,20.32
2022-08-28T15:23:08.599Z,20.30
2022-08-28T15:25:36.332Z,20.24
2022-08-28T15:28:04.391Z,20.20
2022-08-28T15:30:32.292Z,20.17
2022-08-28T15:33:00.039Z,20.15
2022-08-28T15:35:27.878Z,20.12
2022-08-28T15:37:55.467Z,20.09
2022-08-28T15:40:41.397Z,20.06
2022-08-28T15:43:09.153Z,20.04
2022-08-28T15:45:37.512Z,20.03
2022-08-28T15:48:05.621Z,20.01
2022-08-28T15:50:33.296Z,19.97
2022-08-28T15:53:01.087Z,19.91
2022-08-28T15:55:29.590Z,19.86
2022-08-28T15:57:57.391Z,19.82
2022-08-28T16:00:25.448Z,19.81
2022-08-28T16:02:59.115Z,19.82
2022-08-28T16:05:31.213Z,19.84
2022-08-28T16:08:00.187Z,19.84
2022-08-28T16:10:28.227Z,19.83
2022-08-28T16:12:57.630Z,19.78
2022-08-28T16:15:25.753Z,19.78
2022-08-28T16:17:53.329Z,19.78
2022-08-28T16:20:21.011Z,19.76
2022-08-28T16:22:48.939Z,19.70
2022-08-28T16:25:17.425Z,19.68
2022-08-28T16:27:45.087Z,19.65
2022-08-28T16:30:15.614Z,19.63
2022-08-28T16:32:46.741Z,19.61
2022-08-28T16:35:32.036Z,19.61
2022-08-28T16:38:04.651Z,19.69
2022-08-28T16:40:32.344Z,19.73
2022-08-28T16:43:00.190Z,19.70
2022-08-28T16:45:27.805Z,19.67
2022-08-28T16:47:55.414Z,19.65
2022-08-28T16:50:26.147Z,19.67
2022-08-28T16:52:54.366Z,19.66
2022-08-28T16:55:22.158Z,19.62
2022-08-28T16:57:52.134Z,19.62
2022-08-28T17:00:21.059Z,19.60
2022-08-28T17:02:48.983Z,19.53
2022-08-28T17:05:19.378Z,19.51
2022-08-28T17:07:48.311Z,19.50
2022-08-28T17:10:20.189Z,19.50
2022-08-28T17:12:49.228Z,19.50
2022-08-28T17:15:17.505Z,19.50
2022-08-28T17:17:45.782Z,19.48
2022-08-28T17:20:28.795Z,19.49
2022-08-28T17:22:56.620Z,19.50
2022-08-28T17:25:25.686Z,19.47
2022-08-28T17:27:53.379Z,19.45
2022-08-28T17:30:21.662Z,19.44
2022-08-28T17:32:51.094Z,19.44
2022-08-28T17:35:19.313Z,19.44
2022-08-28T17:37:47.317Z,19.44
2022-08-28T17:40:17.963Z,19.43
2022-08-28T17:42:47.514Z,19.40
2022-08-28T17:45:15.859Z,19.39
2022-08-28T17:47:45.195Z,19.37
2022-08-28T17:50:18.251Z,19.38
2022-08-28T17:52:46.612Z,19.36
2022-08-28T17:55:14.746Z,19.36
2022-08-28T17:57:45.174Z,19.34
2022-08-28T18:00:16.503Z,19.31
2022-08-28T18:02:47.153Z,19.27
2022-08-28T18:05:15.991Z,19.25
2022-08-28T18:07:44.872Z,19.23
2022-08-28T18:10:14.869Z,19.23
2022-08-28T18:12:43.739Z,19.22
2022-08-28T18:15:14.218Z,19.21
2022-08-28T18:17:47.407Z,19.20
2022-08-28T18:20:15.626Z,19.18
2022-08-28T18:22:43.364Z,19.17
2022-08-28T18:25:31.973Z,19.16
2022-08-28T18:28:01.293Z,19.17
2022-08-28T18:30:29.680Z,19.16
2022-08-28T18:32:58.556Z,19.13
2022-08-28T18:35:31.029Z,19.13
2022-08-28T18:38:01.302Z,19.11
2022-08-28T18:40:30.288Z,19.11
2022-08-28T18:42:58.345Z,19.11
2022-08-28T18:45:26.839Z,19.10
2022-08-28T18:47:55.233Z,19.07
2022-08-28T18:50:32.903Z,19.08
2022-08-28T18:53:03.649Z,19.08
2022-08-28T18:55:39.233Z,19.07
2022-08-28T18:58:15.161Z,19.06
2022-08-28T19:00:43.984Z,19.07
2022-08-28T19:03:13.319Z,19.05
2022-08-28T19:05:43.223Z,19.05
2022-08-28T19:08:20.040Z,19.05
2022-08-28T19:10:50.217Z,19.04
2022-08-28T19:13:18.520Z,19.03
2022-08-28T19:15:51.155Z,19.03
2022-08-28T19:18:20.098Z,19.03
2022-08-28T19:20:49.053Z,19.03
2022-08-28T19:23:17.993Z,19.03
2022-08-28T19:25:48.381Z,19.03
2022-08-28T19:28:17.036Z,19.01
2022-08-28T19:30:48.732Z,18.98
2022-08-28T19:33:17.049Z,18.99
2022-08-28T19:35:45.709Z,19.00
2022-08-28T19:38:15.474Z,19.00
2022-08-28T19:40:45.316Z,18.98
2022-08-28T19:43:16.653Z,18.98
2022-08-28T19:45:46.648Z,18.99
2022-08-28T19:48:15.539Z,18.99
2022-08-28T19:50:45.346Z,19.01
2022-08-28T19:53:14.125Z,18.99
2022-08-28T19:55:44.703Z,18.99
2022-08-28T19:58:13.144Z,18.99
2022-08-28T20:00:44.049Z,19.00
2022-08-28T20:03:15.641Z,18.98
2022-08-28T20:05:44.087Z,18.97
2022-08-28T20:08:12.914Z,18.97
2022-08-28T20:10:43.027Z,18.96
2022-08-28T20:13:11.441Z,18.96
2022-08-28T20:15:43.471Z,18.95
2022-08-28T20:18:13.736Z,18.94
2022-08-28T20:20:44.860Z,18.94
2022-08-28T20:23:12.700Z,18.94
2022-08-28T20:25:45.210Z,18.93
2022-08-28T20:28:13.170Z,18.93
2022-08-28T20:30:44.866Z,18.93
2022-08-28T20:33:14.650Z,18.92
2022-08-28T20:35:45.660Z,18.91
2022-08-28T20:38:13.828Z,18.90
2022-08-28T20:40:42.318Z,18.90
2022-08-28T20:43:10.089Z,18.89
2022-08-28T20:45:37.691Z,18.87
2022-08-28T20:48:06.604Z,18.84
2022-08-28T20:50:37.272Z,18.82
2022-08-28T20:53:05.025Z,18.81
2022-08-28T20:55:32.658Z,18.80
2022-08-28T20:58:00.426Z,18.80
2022-08-28T21:00:28.442Z,18.79
2022-08-28T21:02:56.109Z,18.77
2022-08-28T21:05:26.071Z,18.77
2022-08-28T21:07:54.225Z,18.75
2022-08-28T21:10:22.029Z,18.73
2022-08-28T21:12:57.147Z,18.71
2022-08-28T21:15:25.058Z,18.70
2022-08-28T21:17:54.128Z,18.69
2022-08-28T21:20:24.767Z,18.66
2022-08-28T21:22:54.272Z,18.64
2022-08-28T21:25:24.741Z,18.62
2022-08-28T21:27:52.673Z,18.62
2022-08-28T21:30:25.585Z,18.59
2022-08-28T21:32:57.441Z,18.58
2022-08-28T21:35:25.575Z,18.55
2022-08-28T21:37:53.559Z,18.52
2022-08-28T21:40:21.511Z,18.50
2022-08-28T21:42:49.086Z,18.48
2022-08-28T21:45:16.984Z,18.46
2022-08-28T21:47:44.822Z,18.43
2022-08-28T21:50:13.207Z,18.40
2022-08-28T21:52:41.221Z,18.37
2022-08-28T21:55:13.935Z,18.33
2022-08-28T21:57:42.090Z,18.29
2022-08-28T22:00:15.620Z,18.27
2022-08-28T22:02:43.682Z,18.24
2022-08-28T22:05:11.657Z,18.20
2022-08-28T22:07:39.958Z,18.15
2022-08-28T22:10:08.964Z,18.11
2022-08-28T22:12:36.651Z,18.07
2022-08-28T22:15:05.582Z,18.01
2022-08-28T22:17:33.202Z,17.95
2022-08-28T22:20:01.384Z,17.90
2022-08-28T22:22:47.341Z,17.85
2022-08-28T22:25:15.299Z,17.80
2022-08-28T22:27:43.050Z,17.76
2022-08-28T22:30:12.878Z,17.73
2022-08-28T22:32:40.432Z,17.67
2022-08-28T22:35:10.036Z,17.63
2022-08-28T22:37:38.121Z,17.59
2022-08-28T22:40:09.425Z,17.56
2022-08-28T22:42:41.892Z,17.54
2022-08-28T22:45:10.750Z,17.50
2022-08-28T22:47:39.007Z,17.47
2022-08-28T22:50:08.671Z,17.43
2022-08-28T22:52:36.828Z,17.39
2022-08-28T22:55:07.311Z,17.35
2022-08-28T22:57:36.743Z,17.31
2022-08-28T23:00:07.438Z,17.28
2022-08-28T23:02:35.202Z,17.25
2022-08-28T23:05:04.950Z,17.21
2022-08-28T23:07:32.810Z,17.17
2022-08-28T23:10:00.612Z,17.12
2022-08-28T23:12:29.153Z,17.10
2022-08-28T23:14:56.817Z,17.07
2022-08-28T23:17:24.414Z,17.04
2022-08-28T23:19:52.666Z,16.99
2022-08-28T23:22:20.605Z,16.95
2022-08-28T23:24:48.497Z,16.90
2022-08-28T23:27:35.224Z,16.86
2022-08-28T23:30:06.610Z,16.82
2022-08-28T23:32:34.300Z,16.78
2022-08-28T23:35:02.448Z,16.76
2022-08-28T23:37:36.476Z,16.73
2022-08-28T23:40:06.773Z,16.69
2022-08-28T23:42:35.173Z,16.66
2022-08-28T23:45:05.086Z,16.61
2022-08-28T23:47:33.340Z,16.57
2022-08-28T23:50:01.539Z,16.54
2022-08-28T23:52:30.585Z,16.52
2022-08-28T23:55:00.062Z,16.49
2022-08-28T23:57:28.455Z,16.48
2022-08-28T23:59:56.068Z,16.46
